createdAt,value
2018-05-19T00:01:15.243Z,7.77
2018-05-19T00:03:41.398Z,8.13
2018-05-19T00:06:07.599Z,7.03
2018-05-19T00:08:33.745Z,8.07
2018-05-19T00:10:59.974Z,9.07
2018-05-19T00:13:26.166Z,8.23
2018-05-19T00:15:53.118Z,7.97
2018-05-19T00:18:20.009Z,8.17
2018-05-19T00:20:46.172Z,7.63
2018-05-19T00:23:13.080Z,8.07
2018-05-19T00:25:39.280Z,7.47
2018-05-19T00:28:05.453Z,8.37
2018-05-19T00:30:31.655Z,8.37
2018-05-19T00:32:57.853Z,8.47
2018-05-19T00:35:24.035Z,7.73
2018-05-19T00:37:50.216Z,7.50
2018-05-19T00:40:16.442Z,9.37
2018-05-19T00:42:42.627Z,10.60
2018-05-19T00:45:08.852Z,12.30
2018-05-19T00:47:35.071Z,12.03
2018-05-19T00:50:01.290Z,11.20
2018-05-19T00:52:27.439Z,9.57
2018-05-19T00:55:02.847Z,10.17
2018-05-19T00:57:28.996Z,9.17
2018-05-19T00:59:55.157Z,8.17
2018-05-19T01:02:22.123Z,7.70
2018-05-19T01:04:48.320Z,7.80
2018-05-19T01:07:15.259Z,7.50
2018-05-19T01:09:42.222Z,8.60
2018-05-19T01:12:08.410Z,7.83
2018-05-19T01:14:34.607Z,9.40
2018-05-19T01:17:00.821Z,8.97
2018-05-19T01:19:27.046Z,9.40
2018-05-19T01:21:53.234Z,8.27
2018-05-19T01:24:19.387Z,8.70
2018-05-19T01:26:46.385Z,9.10
2018-05-19T01:29:12.633Z,10.00
2018-05-19T01:31:38.822Z,9.57
2018-05-19T01:34:04.999Z,8.53
2018-05-19T01:36:31.948Z,8.80
2018-05-19T01:38:58.931Z,8.33
2018-05-19T01:41:25.083Z,7.53
2018-05-19T01:43:51.300Z,7.33
2018-05-19T01:46:17.545Z,7.40
2018-05-19T01:48:43.743Z,8.60
2018-05-19T01:51:09.927Z,9.13
2018-05-19T01:53:36.150Z,9.47
2018-05-19T01:56:02.358Z,11.13
2018-05-19T01:58:28.557Z,9.53
2018-05-19T02:00:54.734Z,10.47
2018-05-19T02:03:20.895Z,8.17
2018-05-19T02:05:47.032Z,7.43
2018-05-19T02:08:13.171Z,6.60
2018-05-19T02:10:39.385Z,7.00
2018-05-19T02:13:05.541Z,6.53
2018-05-19T02:15:31.703Z,7.70
2018-05-19T02:17:58.583Z,7.00
2018-05-19T02:20:24.795Z,7.70
2018-05-19T02:22:50.993Z,6.90
2018-05-19T02:25:17.202Z,7.17
2018-05-19T02:27:43.417Z,7.20
2018-05-19T02:30:09.620Z,7.70
2018-05-19T02:32:35.811Z,8.13
2018-05-19T02:35:02.839Z,8.27
2018-05-19T02:37:29.007Z,8.37
2018-05-19T02:39:56.011Z,10.20
2018-05-19T02:42:22.214Z,8.77
2018-05-19T02:44:48.386Z,8.23
2018-05-19T02:47:14.538Z,7.70
2018-05-19T02:49:40.714Z,8.80
2018-05-19T02:52:06.927Z,8.10
2018-05-19T02:54:33.114Z,7.53
2018-05-19T02:57:00.032Z,8.23
2018-05-19T02:59:26.261Z,8.23
2018-05-19T03:01:52.440Z,8.47
2018-05-19T03:04:18.633Z,9.50
2018-05-19T03:06:45.580Z,8.43
2018-05-19T03:09:12.545Z,8.20
2018-05-19T03:11:38.755Z,7.60
2018-05-19T03:14:05.651Z,7.53
2018-05-19T03:16:32.571Z,7.70
2018-05-19T03:18:58.783Z,7.33
2018-05-19T03:21:25.010Z,7.57
2018-05-19T03:23:51.185Z,8.60
2018-05-19T03:26:17.380Z,8.03
2018-05-19T03:28:43.577Z,8.30
2018-05-19T03:31:10.495Z,9.10
2018-05-19T03:33:36.669Z,9.67
2018-05-19T03:36:02.866Z,8.67
2018-05-19T03:38:29.018Z,7.13
2018-05-19T03:40:55.950Z,8.03
2018-05-19T03:43:22.892Z,7.40
2018-05-19T03:45:49.813Z,7.30
2018-05-19T03:48:16.020Z,7.63
2018-05-19T03:50:42.201Z,7.37
2018-05-19T03:53:09.159Z,6.90
2018-05-19T03:55:35.346Z,8.57
2018-05-19T03:58:13.776Z,8.17
2018-05-19T04:00:52.908Z,8.80
2018-05-19T04:03:19.825Z,7.40
2018-05-19T04:05:46.047Z,8.50
2018-05-19T04:08:12.278Z,7.60
2018-05-19T04:10:38.438Z,8.30
2018-05-19T04:13:05.384Z,8.20
2018-05-19T04:15:32.287Z,8.30
2018-05-19T04:17:58.469Z,7.73
2018-05-19T04:20:24.634Z,7.93
2018-05-19T04:22:50.902Z,7.50
2018-05-19T04:25:17.887Z,6.97
2018-05-19T04:27:44.138Z,8.10
2018-05-19T04:30:10.291Z,8.30
2018-05-19T04:32:36.520Z,8.30
2018-05-19T04:35:02.766Z,9.20
2018-05-19T04:37:29.657Z,8.60
2018-05-19T04:39:55.864Z,10.07
2018-05-19T04:42:22.097Z,8.40
2018-05-19T04:44:48.276Z,8.80
2018-05-19T04:47:14.460Z,9.20
2018-05-19T04:49:40.680Z,10.20
2018-05-19T04:52:06.870Z,8.83
2018-05-19T04:54:33.062Z,10.13
2018-05-19T04:56:59.253Z,9.60
2018-05-19T04:59:25.438Z,10.70
2018-05-19T05:01:51.661Z,9.70
2018-05-19T05:04:17.866Z,10.57
2018-05-19T05:06:44.016Z,9.80
2018-05-19T05:09:10.234Z,10.70
2018-05-19T05:11:36.397Z,11.57
2018-05-19T05:14:03.281Z,10.30
2018-05-19T05:16:29.508Z,10.30
2018-05-19T05:18:55.674Z,10.50
2018-05-19T05:21:21.841Z,9.47
2018-05-19T05:23:47.979Z,9.70
2018-05-19T05:26:14.173Z,11.40
2018-05-19T05:28:41.090Z,10.27
2018-05-19T05:31:07.310Z,12.37
2018-05-19T05:33:33.524Z,10.60
2018-05-19T05:35:59.810Z,11.80
2018-05-19T05:38:25.989Z,12.40
2018-05-19T05:40:52.212Z,11.67
2018-05-19T05:43:18.446Z,12.57
2018-05-19T05:45:44.619Z,13.33
2018-05-19T05:48:11.546Z,12.10
2018-05-19T05:50:37.751Z,12.90
2018-05-19T05:53:03.931Z,11.63
2018-05-19T05:55:30.842Z,13.03
2018-05-19T05:57:57.082Z,13.80
2018-05-19T06:00:23.285Z,12.80
2018-05-19T06:02:49.909Z,12.50
2018-05-19T06:05:16.546Z,12.77
2018-05-19T06:07:42.725Z,13.80
2018-05-19T06:10:09.712Z,16.57
2018-05-19T06:12:35.921Z,18.20
2018-05-19T06:15:02.160Z,18.90
2018-05-19T06:17:28.318Z,18.20
2018-05-19T06:19:54.522Z,19.60
2018-05-19T06:22:20.717Z,19.30
2018-05-19T06:24:47.679Z,18.50
2018-05-19T06:27:14.148Z,19.10
2018-05-19T06:29:40.828Z,17.53
2018-05-19T06:32:08.150Z,19.57
2018-05-19T06:34:34.735Z,17.27
2018-05-19T06:37:00.950Z,18.23
2018-05-19T06:39:27.878Z,17.57
2018-05-19T06:41:54.084Z,18.93
2018-05-19T06:44:20.301Z,16.83
2018-05-19T06:46:46.502Z,19.60
2018-05-19T06:49:12.674Z,17.50
2018-05-19T06:51:38.861Z,18.37
2018-05-19T06:54:05.097Z,18.80
2018-05-19T06:56:31.322Z,18.60
2018-05-19T06:58:57.514Z,18.93
2018-05-19T07:01:24.447Z,19.40
2018-05-19T07:03:50.584Z,19.83
2018-05-19T07:06:17.514Z,18.60
2018-05-19T07:08:43.663Z,19.80
2018-05-19T07:11:10.575Z,19.80
2018-05-19T07:13:36.788Z,20.07
2018-05-19T07:16:02.979Z,21.60
2018-05-19T07:18:29.192Z,20.97
2018-05-19T07:20:55.410Z,21.40
2018-05-19T07:23:22.365Z,20.60
2018-05-19T07:25:49.356Z,21.30
2018-05-19T07:28:15.559Z,20.70
2018-05-19T07:30:41.771Z,20.00
2018-05-19T07:33:07.909Z,20.83
2018-05-19T07:35:34.075Z,20.60
2018-05-19T07:38:00.283Z,21.67
2018-05-19T07:40:26.503Z,22.40
2018-05-19T07:42:52.715Z,22.13
2018-05-19T07:45:18.922Z,21.50
2018-05-19T07:47:45.873Z,23.13
2018-05-19T07:50:19.074Z,23.10
2018-05-19T07:52:45.959Z,22.93
2018-05-19T07:55:12.157Z,21.40
2018-05-19T07:57:38.300Z,22.90
2018-05-19T08:00:04.501Z,19.80
2018-05-19T08:02:30.740Z,21.70
2018-05-19T08:04:56.889Z,23.43
2018-05-19T08:07:23.092Z,22.23
2018-05-19T08:09:49.280Z,21.17
2018-05-19T08:12:15.430Z,22.40
2018-05-19T08:14:42.339Z,24.13
2018-05-19T08:17:08.548Z,22.70
2018-05-19T08:19:34.794Z,21.53
2018-05-19T08:22:01.045Z,21.57
2018-05-19T08:24:28.104Z,26.20
2018-05-19T08:26:55.163Z,22.50
2018-05-19T08:29:21.353Z,23.20
2018-05-19T08:31:47.543Z,22.27
2018-05-19T08:34:13.741Z,23.50
2018-05-19T08:36:40.704Z,23.90
2018-05-19T08:39:06.946Z,22.90
2018-05-19T08:41:33.178Z,24.70
2018-05-19T08:43:59.430Z,23.20
2018-05-19T08:46:25.701Z,22.10
2018-05-19T08:48:51.876Z,25.60
2018-05-19T08:51:18.102Z,22.80
2018-05-19T08:53:44.255Z,21.70
2018-05-19T08:56:10.422Z,23.20
2018-05-19T08:58:36.652Z,23.67
2018-05-19T09:01:09.916Z,24.20
2018-05-19T09:03:36.091Z,24.23
2018-05-19T09:06:02.258Z,25.73
2018-05-19T09:08:28.500Z,21.80
2018-05-19T09:10:55.380Z,22.73
2018-05-19T09:13:21.572Z,26.07
2018-05-19T09:15:48.463Z,23.80
2018-05-19T09:18:14.681Z,24.77
2018-05-19T09:20:40.852Z,25.90
2018-05-19T09:23:07.140Z,25.00
2018-05-19T09:25:33.330Z,25.20
2018-05-19T09:28:00.286Z,26.83
2018-05-19T09:30:27.264Z,23.67
2018-05-19T09:32:53.468Z,25.17
2018-05-19T09:35:19.732Z,24.70
2018-05-19T09:37:45.962Z,26.20
2018-05-19T09:40:12.124Z,25.87
2018-05-19T09:42:38.315Z,24.67
2018-05-19T09:45:04.520Z,24.10
2018-05-19T09:47:30.696Z,23.93
2018-05-19T09:49:56.875Z,23.70
2018-05-19T09:52:23.056Z,22.20
2018-05-19T09:54:49.262Z,22.90
2018-05-19T09:57:15.447Z,23.50
2018-05-19T09:59:41.716Z,23.43
2018-05-19T10:02:07.887Z,23.83
2018-05-19T10:04:34.869Z,25.43
2018-05-19T10:07:01.118Z,23.43
2018-05-19T10:09:27.318Z,23.80
2018-05-19T10:11:53.544Z,23.03
2018-05-19T10:14:19.655Z,23.13
2018-05-19T10:16:46.681Z,23.90
2018-05-19T10:19:13.605Z,23.10
2018-05-19T10:21:39.828Z,21.63
2018-05-19T10:24:05.974Z,20.77
2018-05-19T10:26:32.149Z,21.67
2018-05-19T10:28:58.401Z,22.97
2018-05-19T10:31:24.726Z,22.30
2018-05-19T10:33:50.988Z,22.50
2018-05-19T10:36:17.196Z,20.70
2018-05-19T10:41:16.447Z,20.03
2018-05-19T10:43:43.433Z,20.30
2018-05-19T10:46:09.677Z,20.80
2018-05-19T10:48:35.901Z,21.77
2018-05-19T10:51:02.101Z,21.00
2018-05-19T10:53:28.313Z,19.60
2018-05-19T10:55:55.258Z,17.30
2018-05-19T10:58:22.194Z,17.00
2018-05-19T11:00:49.118Z,17.70
2018-05-19T11:03:15.283Z,18.33
2018-05-19T11:05:41.546Z,18.10
2018-05-19T11:08:07.768Z,18.23
2018-05-19T11:10:33.969Z,17.93
2018-05-19T11:13:00.108Z,17.10
2018-05-19T11:15:26.388Z,16.93
2018-05-19T11:17:52.608Z,17.93
2018-05-19T11:20:18.777Z,15.90
2018-05-19T11:22:45.717Z,15.27
2018-05-19T11:25:11.888Z,17.87
2018-05-19T11:27:38.064Z,15.80
2018-05-19T11:30:04.981Z,15.47
2018-05-19T11:32:31.182Z,15.70
2018-05-19T11:34:57.535Z,12.90
2018-05-19T11:37:23.718Z,13.00
2018-05-19T11:39:49.863Z,12.87
2018-05-19T11:42:16.055Z,13.10
2018-05-19T11:44:42.294Z,12.40
2018-05-19T11:47:08.532Z,13.77
2018-05-19T11:49:34.839Z,12.60
2018-05-19T11:52:01.746Z,12.63
2018-05-19T11:54:28.075Z,12.40
2018-05-19T11:56:54.371Z,11.70
2018-05-19T11:59:20.600Z,12.07
2018-05-19T12:01:46.817Z,12.53
2018-05-19T12:04:12.989Z,11.23
2018-05-19T12:06:39.202Z,11.77
2018-05-19T12:09:05.624Z,13.00
2018-05-19T12:11:31.851Z,12.57
2018-05-19T12:13:58.050Z,12.27
2018-05-19T12:16:25.067Z,11.40
2018-05-19T12:18:51.245Z,10.80
2018-05-19T12:21:17.475Z,11.17
2018-05-19T12:23:43.698Z,10.20
2018-05-19T12:26:10.055Z,9.97
2018-05-19T12:28:36.485Z,10.23
2018-05-19T12:31:03.490Z,9.93
2018-05-19T12:33:29.712Z,9.90
2018-05-19T12:35:56.681Z,11.43
2018-05-19T12:38:22.904Z,10.70
2018-05-19T12:40:49.076Z,11.03
2018-05-19T12:43:15.274Z,11.33
2018-05-19T12:45:41.462Z,11.63
2018-05-19T12:48:08.475Z,9.30
2018-05-19T12:50:34.695Z,10.07
2018-05-19T12:53:00.853Z,10.90
2018-05-19T12:55:27.032Z,10.27
2018-05-19T12:57:53.231Z,11.30
2018-05-19T13:00:20.188Z,9.97
2018-05-19T13:02:46.337Z,9.60
2018-05-19T13:05:12.570Z,9.90
2018-05-19T13:07:38.742Z,10.67
2018-05-19T13:10:05.710Z,9.83
2018-05-19T13:12:31.878Z,10.30
2018-05-19T13:14:58.051Z,10.30
2018-05-19T13:17:24.956Z,9.73
2018-05-19T13:19:51.150Z,9.00
2018-05-19T13:22:17.379Z,9.80
2018-05-19T13:24:43.625Z,9.47
2018-05-19T13:27:09.832Z,10.33
2018-05-19T13:29:36.000Z,10.53
2018-05-19T13:32:02.240Z,9.40
2018-05-19T13:34:28.385Z,10.67
2018-05-19T13:36:55.299Z,8.13
2018-05-19T13:39:21.522Z,9.47
2018-05-19T13:41:47.735Z,8.67
2018-05-19T13:44:13.927Z,9.03
2018-05-19T13:46:40.860Z,10.57
2018-05-19T13:49:07.777Z,10.10
2018-05-19T13:51:34.686Z,9.50
2018-05-19T13:54:00.836Z,9.20
2018-05-19T13:56:27.035Z,10.13
2018-05-19T13:58:53.265Z,10.20
2018-05-19T14:01:19.459Z,9.10
2018-05-19T14:03:46.367Z,9.47
2018-05-19T14:06:12.576Z,9.30
2018-05-19T14:08:38.725Z,9.40
2018-05-19T14:11:04.930Z,10.90
2018-05-19T14:13:31.149Z,11.83
2018-05-19T14:15:57.320Z,10.50
2018-05-19T14:18:23.544Z,11.73
2018-05-19T14:20:49.739Z,10.37
2018-05-19T14:23:15.907Z,10.53
2018-05-19T14:25:42.078Z,11.50
2018-05-19T14:28:08.333Z,10.80
2018-05-19T14:30:34.534Z,9.80
2018-05-19T14:33:00.677Z,11.07
2018-05-19T14:35:26.888Z,8.50
2018-05-19T14:37:53.054Z,9.40
2018-05-19T14:40:19.301Z,9.07
2018-05-19T14:42:46.251Z,9.93
2018-05-19T14:45:12.448Z,10.80
2018-05-19T14:47:38.655Z,10.13
2018-05-19T14:50:04.844Z,8.27
2018-05-19T14:52:31.796Z,4.50
2018-05-19T14:54:58.745Z,4.17
2018-05-19T14:57:25.631Z,3.90
2018-05-19T14:59:51.845Z,4.67
2018-05-19T15:02:18.036Z,4.20
2018-05-19T15:04:44.979Z,4.20
2018-05-19T15:07:11.224Z,3.93
2018-05-19T15:09:37.393Z,4.50
2018-05-19T15:12:03.638Z,3.33
2018-05-19T15:14:29.861Z,3.87
2018-05-19T15:16:56.007Z,4.20
2018-05-19T15:19:22.163Z,4.00
2018-05-19T15:21:48.315Z,3.63
2018-05-19T15:24:14.488Z,3.63
2018-05-19T15:26:40.707Z,5.13
2018-05-19T15:29:06.869Z,11.57
2018-05-19T15:31:33.073Z,3.30
2018-05-19T15:33:59.972Z,3.40
2018-05-19T15:36:26.252Z,3.10
2018-05-19T15:38:53.227Z,3.00
2018-05-19T15:41:19.386Z,3.80
2018-05-19T15:43:45.580Z,3.20
2018-05-19T15:46:11.733Z,2.97
2018-05-19T15:48:37.915Z,2.93
2018-05-19T15:51:04.891Z,3.37
2018-05-19T15:53:31.125Z,3.10
2018-05-19T15:55:57.342Z,3.43
2018-05-19T15:58:23.545Z,3.63
2018-05-19T16:00:50.495Z,2.63
2018-05-19T16:03:17.390Z,3.07
2018-05-19T16:05:43.590Z,2.77
2018-05-19T16:08:09.766Z,2.97
2018-05-19T16:10:35.973Z,2.70
2018-05-19T16:13:02.170Z,2.57
2018-05-19T16:15:28.342Z,2.10
2018-05-19T16:17:54.574Z,2.30
2018-05-19T16:20:20.753Z,2.73
2018-05-19T16:22:47.017Z,1.97
2018-05-19T16:25:13.253Z,2.10
2018-05-19T16:27:39.415Z,2.03
2018-05-19T16:30:06.333Z,2.20
2018-05-19T16:32:33.351Z,1.73
2018-05-19T16:34:59.502Z,1.53
2018-05-19T16:37:25.663Z,3.07
2018-05-19T16:39:51.887Z,1.97
2018-05-19T16:42:18.062Z,1.80
2018-05-19T16:44:44.301Z,1.90
2018-05-19T16:47:10.496Z,2.13
2018-05-19T16:49:36.655Z,1.80
2018-05-19T16:52:02.868Z,2.23
2018-05-19T16:54:29.102Z,2.20
2018-05-19T16:56:55.932Z,1.73
2018-05-19T16:59:22.107Z,1.80
2018-05-19T17:01:48.332Z,2.50
2018-05-19T17:04:15.272Z,1.87
2018-05-19T17:06:41.426Z,1.83
2018-05-19T17:09:08.358Z,1.93
2018-05-19T17:11:35.260Z,2.13
2018-05-19T17:14:01.423Z,2.57
2018-05-19T17:16:27.613Z,2.50
2018-05-19T17:18:53.863Z,2.27
2018-05-19T17:21:20.089Z,2.20
2018-05-19T17:23:46.247Z,2.63
2018-05-19T17:26:13.270Z,2.67
2018-05-19T17:28:39.445Z,2.80
2018-05-19T17:31:05.681Z,3.03
2018-05-19T17:33:31.866Z,2.87
2018-05-19T17:35:58.821Z,3.10
2018-05-19T17:38:25.752Z,3.40
2018-05-19T17:40:51.926Z,3.20
2018-05-19T17:43:18.102Z,4.80
2018-05-19T17:45:44.356Z,4.33
2018-05-19T17:48:10.452Z,5.17
2018-05-19T17:50:36.665Z,4.23
2018-05-19T17:53:02.887Z,4.03
2018-05-19T17:55:29.075Z,4.50
2018-05-19T17:57:55.270Z,3.90
2018-05-19T18:00:21.506Z,3.87
2018-05-19T18:02:48.423Z,4.10
2018-05-19T18:05:14.650Z,3.70
2018-05-19T18:07:40.907Z,4.20
2018-05-19T18:10:14.110Z,3.27
2018-05-19T18:12:41.062Z,2.87
2018-05-19T18:15:07.235Z,3.23
2018-05-19T18:17:33.431Z,2.93
2018-05-19T18:19:59.635Z,2.77
2018-05-19T18:22:26.604Z,2.87
2018-05-19T18:24:52.760Z,2.70
2018-05-19T18:27:18.996Z,3.13
2018-05-19T18:29:45.176Z,2.83
2018-05-19T18:32:11.415Z,3.33
2018-05-19T18:34:37.618Z,3.00
2018-05-19T18:37:04.599Z,2.80
2018-05-19T18:39:30.800Z,2.70
2018-05-19T18:41:57.745Z,3.17
2018-05-19T18:44:23.994Z,2.80
2018-05-19T18:46:50.265Z,3.40
2018-05-19T18:49:17.202Z,3.17
2018-05-19T18:51:45.243Z,3.50
2018-05-19T18:54:11.491Z,3.60
2018-05-19T18:56:37.708Z,3.17
2018-05-19T18:59:03.896Z,2.80
2018-05-19T19:01:30.861Z,3.67
2018-05-19T19:03:57.030Z,4.70
2018-05-19T19:06:23.233Z,3.63
2018-05-19T19:08:49.431Z,4.10
2018-05-19T19:11:16.378Z,3.70
2018-05-19T19:13:42.541Z,3.77
2018-05-19T19:16:08.751Z,3.20
2018-05-19T19:18:34.921Z,3.90
2018-05-19T19:21:01.136Z,3.53
2018-05-19T19:23:27.342Z,3.93
2018-05-19T19:25:53.565Z,3.97
2018-05-19T19:28:19.737Z,3.80
2018-05-19T19:30:45.941Z,3.80
2018-05-19T19:33:12.102Z,4.70
2018-05-19T19:35:38.280Z,6.30
2018-05-19T19:38:04.691Z,5.40
2018-05-19T19:40:31.210Z,4.90
2018-05-19T19:42:57.508Z,3.57
2018-05-19T19:45:23.686Z,4.37
2018-05-19T19:47:49.882Z,4.00
2018-05-19T19:50:16.828Z,4.17
2018-05-19T19:52:43.772Z,3.10
2018-05-19T19:55:09.979Z,3.17
2018-05-19T19:57:36.189Z,3.47
2018-05-19T20:00:02.380Z,3.33
2018-05-19T20:02:29.505Z,4.10
2018-05-19T20:04:56.378Z,4.60
2018-05-19T20:07:22.588Z,4.20
2018-05-19T20:09:49.672Z,9.70
2018-05-19T20:12:15.903Z,8.57
2018-05-19T20:14:42.140Z,5.30
2018-05-19T20:17:08.527Z,4.00
2018-05-19T20:19:34.717Z,3.17
2018-05-19T20:22:00.886Z,3.67
2018-05-19T20:24:27.811Z,3.73
2018-05-19T20:26:54.034Z,3.43
2018-05-19T20:29:20.209Z,3.03
2018-05-19T20:31:46.418Z,4.50
2018-05-19T20:34:12.629Z,3.90
2018-05-19T20:36:39.533Z,4.37
2018-05-19T20:39:05.663Z,3.33
2018-05-19T20:41:31.935Z,3.53
2018-05-19T20:43:58.933Z,3.50
2018-05-19T20:46:25.035Z,3.33
2018-05-19T20:48:51.204Z,3.13
2018-05-19T20:51:17.447Z,3.63
2018-05-19T20:53:43.565Z,3.73
2018-05-19T20:56:09.801Z,3.80
2018-05-19T20:58:36.754Z,3.73
2018-05-19T21:01:03.772Z,3.83
2018-05-19T21:03:29.948Z,3.93
2018-05-19T21:05:56.898Z,4.10
2018-05-19T21:08:23.095Z,3.60
2018-05-19T21:10:49.285Z,4.00
2018-05-19T21:13:15.487Z,3.80
2018-05-19T21:15:41.729Z,4.73
2018-05-19T21:18:07.965Z,5.00
2018-05-19T21:20:34.200Z,5.50
2018-05-19T21:23:00.378Z,6.10
2018-05-19T21:25:27.361Z,5.50
2018-05-19T21:27:53.560Z,6.17
2018-05-19T21:30:20.517Z,5.63
2018-05-19T21:32:46.729Z,6.80
2018-05-19T21:35:13.753Z,6.60
2018-05-19T21:37:39.910Z,6.70
2018-05-19T21:40:06.093Z,7.20
2018-05-19T21:42:32.284Z,6.90
2018-05-19T21:44:58.505Z,6.53
2018-05-19T21:47:24.738Z,7.20
2018-05-19T21:49:50.973Z,7.50
2018-05-19T21:52:17.135Z,7.53
2018-05-19T21:54:43.342Z,7.90
2018-05-19T21:57:09.561Z,7.70
2018-05-19T21:59:35.781Z,7.33
2018-05-19T22:02:01.950Z,7.33
2018-05-19T22:04:28.131Z,7.50
2018-05-19T22:06:54.348Z,7.53
2018-05-19T22:09:20.530Z,8.30
2018-05-19T22:11:46.714Z,8.50
2018-05-19T22:14:12.889Z,8.40
2018-05-19T22:16:39.070Z,7.93
2018-05-19T22:19:05.294Z,7.93
2018-05-19T22:21:31.478Z,9.17
2018-05-19T22:23:57.666Z,8.43
2018-05-19T22:26:23.885Z,8.33
2018-05-19T22:28:50.079Z,7.73
2018-05-19T22:31:17.051Z,9.93
2018-05-19T22:33:43.268Z,8.67
2018-05-19T22:36:09.418Z,9.80
2018-05-19T22:38:35.679Z,10.17
2018-05-19T22:41:01.956Z,9.80
2018-05-19T22:43:28.166Z,10.40
2018-05-19T22:45:55.109Z,9.90
2018-05-19T22:48:22.064Z,11.37
2018-05-19T22:50:48.199Z,11.77
2018-05-19T22:53:14.381Z,12.63
2018-05-19T22:55:40.568Z,11.00
2018-05-19T22:58:06.742Z,12.60
2018-05-19T23:00:32.924Z,11.27
2018-05-19T23:02:59.149Z,12.07
2018-05-19T23:05:25.356Z,12.33
2018-05-19T23:07:52.309Z,11.20
2018-05-19T23:10:18.542Z,11.10
2018-05-19T23:12:44.696Z,11.13
2018-05-19T23:15:10.902Z,11.50
2018-05-19T23:17:37.116Z,11.13
2018-05-19T23:20:04.091Z,12.40
2018-05-19T23:22:39.623Z,11.77
2018-05-19T23:25:05.801Z,10.97
2018-05-19T23:27:32.031Z,11.20
2018-05-19T23:29:58.261Z,10.57
2018-05-19T23:32:24.457Z,11.23
2018-05-19T23:34:50.674Z,11.17
2018-05-19T23:37:16.901Z,10.77
2018-05-19T23:39:43.148Z,9.30
2018-05-19T23:42:09.311Z,9.80
2018-05-19T23:44:36.286Z,10.70
2018-05-19T23:47:02.445Z,10.27
2018-05-19T23:49:28.588Z,10.63
2018-05-19T23:51:55.553Z,10.20
2018-05-19T23:54:22.537Z,11.80
2018-05-19T23:56:48.704Z,11.53
2018-05-19T23:59:14.927Z,11.43
